sensor_id;sensor_type;location;lat;lon;timestamp;temperature;humidity
11772;DHT22;12556;55.748;13.194;2024-02-04T00:02:00;4.80;99.90
11772;DHT22;12556;55.748;13.194;2024-02-04T00:04:29;4.80;99.90
11772;DHT22;12556;55.748;13.194;2024-02-04T00:06:58;4.80;99.90
11772;DHT22;12556;55.748;13.194;2024-02-04T00:09:24;4.80;99.90
11772;DHT22;12556;55.748;13.194;2024-02-04T00:11:54;4.80;99.90
11772;DHT22;12556;55.748;13.194;2024-02-04T00:14:20;4.80;99.90
11772;DHT22;12556;55.748;13.194;2024-02-04T00:16:47;4.80;99.90
11772;DHT22;12556;55.748;13.194;2024-02-04T00:19:14;4.80;99.90
11772;DHT22;12556;55.748;13.194;2024-02-04T00:21:42;4.80;99.90
11772;DHT22;12556;55.748;13.194;2024-02-04T00:24:09;4.80;99.90
11772;DHT22;12556;55.748;13.194;2024-02-04T00:26:36;4.80;99.90
11772;DHT22;12556;55.748;13.194;2024-02-04T00:29:03;4.80;99.90
11772;DHT22;12556;55.748;13.194;2024-02-04T00:31:30;4.80;99.90
11772;DHT22;12556;55.748;13.194;2024-02-04T00:33:56;4.80;99.90
11772;DHT22;12556;55.748;13.194;2024-02-04T00:36:23;4.80;99.90
11772;DHT22;12556;55.748;13.194;2024-02-04T00:38:51;4.80;99.90
11772;DHT22;12556;55.748;13.194;2024-02-04T00:41:18;4.80;99.90
11772;DHT22;12556;55.748;13.194;2024-02-04T00:43:45;4.80;99.90
11772;DHT22;12556;55.748;13.194;2024-02-04T00:46:12;4.80;99.90
11772;DHT22;12556;55.748;13.194;2024-02-04T00:48:39;5.40;99.90
11772;DHT22;12556;55.748;13.194;2024-02-04T00:51:07;5.20;99.90
11772;DHT22;12556;55.748;13.194;2024-02-04T00:53:35;4.80;99.90
11772;DHT22;12556;55.748;13.194;2024-02-04T00:56:04;4.80;99.90
11772;DHT22;12556;55.748;13.194;2024-02-04T00:58:31;4.80;99.90
11772;DHT22;12556;55.748;13.194;2024-02-04T01:00:58;4.80;99.90
11772;DHT22;12556;55.748;13.194;2024-02-04T01:03:25;4.80;99.90
11772;DHT22;12556;55.748;13.194;2024-02-04T01:05:51;4.80;99.90
11772;DHT22;12556;55.748;13.194;2024-02-04T01:08:18;4.80;99.90
11772;DHT22;12556;55.748;13.194;2024-02-04T01:10:45;4.80;99.90
11772;DHT22;12556;55.748;13.194;2024-02-04T01:13:13;4.80;99.90
11772;DHT22;12556;55.748;13.194;2024-02-04T01:15:40;4.80;99.90
11772;DHT22;12556;55.748;13.194;2024-02-04T01:18:07;4.90;99.90
11772;DHT22;12556;55.748;13.194;2024-02-04T01:20:34;4.90;99.90
11772;DHT22;12556;55.748;13.194;2024-02-04T01:23:01;4.90;99.90
11772;DHT22;12556;55.748;13.194;2024-02-04T01:25:27;4.90;99.90
11772;DHT22;12556;55.748;13.194;2024-02-04T01:27:54;4.90;99.90
11772;DHT22;12556;55.748;13.194;2024-02-04T01:30:22;4.90;99.90
11772;DHT22;12556;55.748;13.194;2024-02-04T01:32:49;4.90;99.90
11772;DHT22;12556;55.748;13.194;2024-02-04T01:35:15;4.90;99.90
11772;DHT22;12556;55.748;13.194;2024-02-04T01:37:42;4.90;99.90
11772;DHT22;12556;55.748;13.194;2024-02-04T01:40:10;4.80;99.90
11772;DHT22;12556;55.748;13.194;2024-02-04T01:42:37;4.80;99.90
11772;DHT22;12556;55.748;13.194;2024-02-04T01:45:05;4.80;99.90
11772;DHT22;12556;55.748;13.194;2024-02-04T01:47:34;4.80;99.90
11772;DHT22;12556;55.748;13.194;2024-02-04T01:50:01;4.80;99.90
11772;DHT22;12556;55.748;13.194;2024-02-04T01:52:30;4.80;99.90
11772;DHT22;12556;55.748;13.194;2024-02-04T01:54:58;4.80;99.90
11772;DHT22;12556;55.748;13.194;2024-02-04T01:57:25;4.80;99.90
11772;DHT22;12556;55.748;13.194;2024-02-04T01:59:53;4.80;99.90
11772;DHT22;12556;55.748;13.194;2024-02-04T02:02:21;4.90;99.90
11772;DHT22;12556;55.748;13.194;2024-02-04T02:04:51;4.70;99.90
11772;DHT22;12556;55.748;13.194;2024-02-04T02:07:18;4.70;99.90
11772;DHT22;12556;55.748;13.194;2024-02-04T02:09:45;4.70;99.90
11772;DHT22;12556;55.748;13.194;2024-02-04T02:12:16;4.70;99.90
11772;DHT22;12556;55.748;13.194;2024-02-04T02:14:46;4.70;99.90
11772;DHT22;12556;55.748;13.194;2024-02-04T02:17:18;4.70;99.90
11772;DHT22;12556;55.748;13.194;2024-02-04T02:19:52;4.70;99.90
11772;DHT22;12556;55.748;13.194;2024-02-04T02:22:29;4.60;99.90
11772;DHT22;12556;55.748;13.194;2024-02-04T02:24:58;4.60;99.90
11772;DHT22;12556;55.748;13.194;2024-02-04T02:27:26;4.60;99.90
11772;DHT22;12556;55.748;13.194;2024-02-04T02:29:53;4.60;99.90
11772;DHT22;12556;55.748;13.194;2024-02-04T02:32:19;4.60;99.90
11772;DHT22;12556;55.748;13.194;2024-02-04T02:34:46;4.60;99.90
11772;DHT22;12556;55.748;13.194;2024-02-04T02:37:21;4.60;99.90
11772;DHT22;12556;55.748;13.194;2024-02-04T02:39:53;4.70;99.90
11772;DHT22;12556;55.748;13.194;2024-02-04T02:42:23;4.70;99.90
11772;DHT22;12556;55.748;13.194;2024-02-04T02:44:53;4.70;99.90
11772;DHT22;12556;55.748;13.194;2024-02-04T02:47:21;4.70;99.90
11772;DHT22;12556;55.748;13.194;2024-02-04T02:49:51;4.80;99.90
11772;DHT22;12556;55.748;13.194;2024-02-04T02:52:18;4.80;99.90
11772;DHT22;12556;55.748;13.194;2024-02-04T02:54:44;4.90;99.90
11772;DHT22;12556;55.748;13.194;2024-02-04T02:57:11;4.90;99.90
11772;DHT22;12556;55.748;13.194;2024-02-04T02:59:40;4.90;99.90
11772;DHT22;12556;55.748;13.194;2024-02-04T03:02:07;4.90;99.90
11772;DHT22;12556;55.748;13.194;2024-02-04T03:04:34;5.00;99.90
11772;DHT22;12556;55.748;13.194;2024-02-04T03:07:01;5.00;99.90
11772;DHT22;12556;55.748;13.194;2024-02-04T03:09:27;5.00;99.90
11772;DHT22;12556;55.748;13.194;2024-02-04T03:11:54;5.00;99.90
11772;DHT22;12556;55.748;13.194;2024-02-04T03:14:21;5.00;99.90
11772;DHT22;12556;55.748;13.194;2024-02-04T03:16:49;5.10;99.90
11772;DHT22;12556;55.748;13.194;2024-02-04T03:19:16;5.10;99.90
11772;DHT22;12556;55.748;13.194;2024-02-04T03:21:43;5.10;99.90
11772;DHT22;12556;55.748;13.194;2024-02-04T03:24:10;5.10;99.90
11772;DHT22;12556;55.748;13.194;2024-02-04T03:26:37;5.10;99.90
11772;DHT22;12556;55.748;13.194;2024-02-04T03:29:04;5.10;99.90
11772;DHT22;12556;55.748;13.194;2024-02-04T03:31:31;5.20;99.90
11772;DHT22;12556;55.748;13.194;2024-02-04T03:33:59;5.20;99.90
11772;DHT22;12556;55.748;13.194;2024-02-04T03:36:27;5.20;99.90
11772;DHT22;12556;55.748;13.194;2024-02-04T03:38:53;5.20;99.90
11772;DHT22;12556;55.748;13.194;2024-02-04T03:41:20;5.20;99.90
11772;DHT22;12556;55.748;13.194;2024-02-04T03:43:47;5.30;99.90
11772;DHT22;12556;55.748;13.194;2024-02-04T03:46:14;5.30;99.90
11772;DHT22;12556;55.748;13.194;2024-02-04T03:48:41;5.30;99.90
11772;DHT22;12556;55.748;13.194;2024-02-04T03:51:15;5.30;99.90
11772;DHT22;12556;55.748;13.194;2024-02-04T03:53:42;5.30;99.90
11772;DHT22;12556;55.748;13.194;2024-02-04T03:56:09;5.30;99.90
11772;DHT22;12556;55.748;13.194;2024-02-04T03:58:36;5.30;99.90
11772;DHT22;12556;55.748;13.194;2024-02-04T04:01:04;5.30;99.90
11772;DHT22;12556;55.748;13.194;2024-02-04T04:03:30;5.30;99.90
11772;DHT22;12556;55.748;13.194;2024-02-04T04:05:57;5.30;99.90
11772;DHT22;12556;55.748;13.194;2024-02-04T04:08:25;5.40;99.90
11772;DHT22;12556;55.748;13.194;2024-02-04T04:10:52;5.40;99.90
11772;DHT22;12556;55.748;13.194;2024-02-04T04:13:19;5.40;99.90
11772;DHT22;12556;55.748;13.194;2024-02-04T04:15:46;5.40;99.90
11772;DHT22;12556;55.748;13.194;2024-02-04T04:18:12;5.40;99.90
11772;DHT22;12556;55.748;13.194;2024-02-04T04:20:40;5.40;99.90
11772;DHT22;12556;55.748;13.194;2024-02-04T04:23:07;5.40;99.90
11772;DHT22;12556;55.748;13.194;2024-02-04T04:25:35;5.40;99.90
11772;DHT22;12556;55.748;13.194;2024-02-04T04:28:02;5.40;99.90
11772;DHT22;12556;55.748;13.194;2024-02-04T04:30:29;5.40;99.90
11772;DHT22;12556;55.748;13.194;2024-02-04T04:32:56;5.40;99.90
11772;DHT22;12556;55.748;13.194;2024-02-04T04:35:24;5.40;99.90
11772;DHT22;12556;55.748;13.194;2024-02-04T04:37:51;5.40;99.90
11772;DHT22;12556;55.748;13.194;2024-02-04T04:40:18;5.40;99.90
11772;DHT22;12556;55.748;13.194;2024-02-04T04:42:46;5.40;99.90
11772;DHT22;12556;55.748;13.194;2024-02-04T04:45:13;5.40;99.90
11772;DHT22;12556;55.748;13.194;2024-02-04T04:47:40;5.40;99.90
11772;DHT22;12556;55.748;13.194;2024-02-04T04:50:08;5.40;99.90
11772;DHT22;12556;55.748;13.194;2024-02-04T04:52:34;5.40;99.90
11772;DHT22;12556;55.748;13.194;2024-02-04T04:55:01;5.40;99.90
11772;DHT22;12556;55.748;13.194;2024-02-04T04:57:28;5.40;99.90
11772;DHT22;12556;55.748;13.194;2024-02-04T04:59:57;5.40;99.90
11772;DHT22;12556;55.748;13.194;2024-02-04T05:02:24;5.40;99.90
11772;DHT22;12556;55.748;13.194;2024-02-04T05:04:51;5.40;99.90
11772;DHT22;12556;55.748;13.194;2024-02-04T05:07:18;5.40;99.90
11772;DHT22;12556;55.748;13.194;2024-02-04T05:09:44;5.40;99.90
11772;DHT22;12556;55.748;13.194;2024-02-04T05:12:12;5.40;99.90
11772;DHT22;12556;55.748;13.194;2024-02-04T05:14:38;5.40;99.90
11772;DHT22;12556;55.748;13.194;2024-02-04T05:17:06;5.40;99.90
11772;DHT22;12556;55.748;13.194;2024-02-04T05:19:35;5.40;99.90
11772;DHT22;12556;55.748;13.194;2024-02-04T05:22:02;5.40;99.90
11772;DHT22;12556;55.748;13.194;2024-02-04T05:24:28;5.40;99.90
11772;DHT22;12556;55.748;13.194;2024-02-04T05:26:55;5.40;99.90
11772;DHT22;12556;55.748;13.194;2024-02-04T05:29:22;5.40;99.90
11772;DHT22;12556;55.748;13.194;2024-02-04T05:31:49;5.40;99.90
11772;DHT22;12556;55.748;13.194;2024-02-04T05:34:17;5.40;99.90
11772;DHT22;12556;55.748;13.194;2024-02-04T05:36:44;6.10;99.90
11772;DHT22;12556;55.748;13.194;2024-02-04T05:39:11;5.50;99.90
11772;DHT22;12556;55.748;13.194;2024-02-04T05:41:39;6.20;99.90
11772;DHT22;12556;55.748;13.194;2024-02-04T05:44:07;5.50;99.90
11772;DHT22;12556;55.748;13.194;2024-02-04T05:46:34;5.50;99.90
11772;DHT22;12556;55.748;13.194;2024-02-04T05:49:01;5.50;99.90
11772;DHT22;12556;55.748;13.194;2024-02-04T05:51:31;5.50;99.90
11772;DHT22;12556;55.748;13.194;2024-02-04T05:53:58;5.50;99.90
11772;DHT22;12556;55.748;13.194;2024-02-04T05:56:25;5.50;99.90
11772;DHT22;12556;55.748;13.194;2024-02-04T05:58:52;5.40;99.90
11772;DHT22;12556;55.748;13.194;2024-02-04T06:01:19;5.40;99.90
11772;DHT22;12556;55.748;13.194;2024-02-04T06:03:46;5.40;99.90
11772;DHT22;12556;55.748;13.194;2024-02-04T06:06:14;5.40;99.90
11772;DHT22;12556;55.748;13.194;2024-02-04T06:08:43;5.40;99.90
11772;DHT22;12556;55.748;13.194;2024-02-04T06:11:10;5.40;99.90
11772;DHT22;12556;55.748;13.194;2024-02-04T06:13:38;5.40;99.90
11772;DHT22;12556;55.748;13.194;2024-02-04T06:16:06;5.40;99.90
11772;DHT22;12556;55.748;13.194;2024-02-04T06:18:33;5.40;99.90
11772;DHT22;12556;55.748;13.194;2024-02-04T06:21:00;5.50;99.90
11772;DHT22;12556;55.748;13.194;2024-02-04T06:23:27;5.50;99.90
11772;DHT22;12556;55.748;13.194;2024-02-04T06:25:55;5.50;99.90
11772;DHT22;12556;55.748;13.194;2024-02-04T06:28:22;5.50;99.90
11772;DHT22;12556;55.748;13.194;2024-02-04T06:30:49;5.50;99.90
11772;DHT22;12556;55.748;13.194;2024-02-04T06:33:16;5.50;99.90
11772;DHT22;12556;55.748;13.194;2024-02-04T06:35:43;5.50;99.90
11772;DHT22;12556;55.748;13.194;2024-02-04T06:38:10;5.50;99.90
11772;DHT22;12556;55.748;13.194;2024-02-04T06:40:37;5.50;99.90
11772;DHT22;12556;55.748;13.194;2024-02-04T06:43:05;5.50;99.90
11772;DHT22;12556;55.748;13.194;2024-02-04T06:45:32;5.50;99.90
11772;DHT22;12556;55.748;13.194;2024-02-04T06:47:59;5.50;99.90
11772;DHT22;12556;55.748;13.194;2024-02-04T06:50:26;5.60;99.90
11772;DHT22;12556;55.748;13.194;2024-02-04T06:52:53;5.60;99.90
11772;DHT22;12556;55.748;13.194;2024-02-04T06:55:19;5.60;99.90
11772;DHT22;12556;55.748;13.194;2024-02-04T06:57:46;5.60;99.90
11772;DHT22;12556;55.748;13.194;2024-02-04T07:00:15;5.60;99.90
11772;DHT22;12556;55.748;13.194;2024-02-04T07:02:42;5.60;99.90
11772;DHT22;12556;55.748;13.194;2024-02-04T07:05:09;5.60;99.90
11772;DHT22;12556;55.748;13.194;2024-02-04T07:07:36;5.30;99.90
11772;DHT22;12556;55.748;13.194;2024-02-04T07:10:04;5.60;99.90
11772;DHT22;12556;55.748;13.194;2024-02-04T07:12:31;5.60;99.90
11772;DHT22;12556;55.748;13.194;2024-02-04T07:14:58;5.60;99.90
11772;DHT22;12556;55.748;13.194;2024-02-04T07:17:26;5.60;99.90
11772;DHT22;12556;55.748;13.194;2024-02-04T07:19:53;5.60;99.90
11772;DHT22;12556;55.748;13.194;2024-02-04T07:22:20;5.60;99.90
11772;DHT22;12556;55.748;13.194;2024-02-04T07:24:47;5.60;99.90
11772;DHT22;12556;55.748;13.194;2024-02-04T07:27:13;5.60;99.90
11772;DHT22;12556;55.748;13.194;2024-02-04T07:29:40;5.60;99.90
11772;DHT22;12556;55.748;13.194;2024-02-04T07:32:07;5.60;99.90
11772;DHT22;12556;55.748;13.194;2024-02-04T07:34:35;5.60;99.90
11772;DHT22;12556;55.748;13.194;2024-02-04T07:37:03;5.70;99.90
11772;DHT22;12556;55.748;13.194;2024-02-04T07:39:29;5.70;99.90
11772;DHT22;12556;55.748;13.194;2024-02-04T07:41:57;5.70;99.90
11772;DHT22;12556;55.748;13.194;2024-02-04T07:44:25;5.70;99.90
11772;DHT22;12556;55.748;13.194;2024-02-04T07:46:52;5.70;99.90
11772;DHT22;12556;55.748;13.194;2024-02-04T07:49:19;5.70;99.90
11772;DHT22;12556;55.748;13.194;2024-02-04T07:51:47;5.80;99.90
11772;DHT22;12556;55.748;13.194;2024-02-04T07:54:14;5.80;99.90
11772;DHT22;12556;55.748;13.194;2024-02-04T07:56:41;5.80;99.90
11772;DHT22;12556;55.748;13.194;2024-02-04T07:59:08;5.80;99.90
11772;DHT22;12556;55.748;13.194;2024-02-04T08:01:34;5.80;99.90
11772;DHT22;12556;55.748;13.194;2024-02-04T08:04:01;5.80;99.90
11772;DHT22;12556;55.748;13.194;2024-02-04T08:06:29;5.80;99.90
11772;DHT22;12556;55.748;13.194;2024-02-04T08:08:57;5.80;99.90
11772;DHT22;12556;55.748;13.194;2024-02-04T08:11:24;5.80;99.90
11772;DHT22;12556;55.748;13.194;2024-02-04T08:13:50;5.80;99.90
11772;DHT22;12556;55.748;13.194;2024-02-04T08:16:17;5.80;99.90
11772;DHT22;12556;55.748;13.194;2024-02-04T08:18:44;5.80;99.90
11772;DHT22;12556;55.748;13.194;2024-02-04T08:21:11;5.90;99.90
11772;DHT22;12556;55.748;13.194;2024-02-04T08:23:39;5.90;99.90
11772;DHT22;12556;55.748;13.194;2024-02-04T08:26:07;5.90;99.90
11772;DHT22;12556;55.748;13.194;2024-02-04T08:28:34;5.90;99.90
11772;DHT22;12556;55.748;13.194;2024-02-04T08:31:01;5.90;99.90
11772;DHT22;12556;55.748;13.194;2024-02-04T08:33:28;6.00;99.90
11772;DHT22;12556;55.748;13.194;2024-02-04T08:35:55;6.00;99.90
11772;DHT22;12556;55.748;13.194;2024-02-04T08:38:21;6.00;99.90
11772;DHT22;12556;55.748;13.194;2024-02-04T08:40:48;6.00;99.90
11772;DHT22;12556;55.748;13.194;2024-02-04T08:43:16;6.00;99.90
11772;DHT22;12556;55.748;13.194;2024-02-04T08:45:43;6.10;99.90
11772;DHT22;12556;55.748;13.194;2024-02-04T08:48:10;6.10;99.90
11772;DHT22;12556;55.748;13.194;2024-02-04T08:50:37;6.10;99.90
11772;DHT22;12556;55.748;13.194;2024-02-04T08:53:04;6.10;99.90
11772;DHT22;12556;55.748;13.194;2024-02-04T08:55:30;6.20;99.90
11772;DHT22;12556;55.748;13.194;2024-02-04T08:57:56;6.20;99.90
11772;DHT22;12556;55.748;13.194;2024-02-04T09:00:24;6.20;99.90
11772;DHT22;12556;55.748;13.194;2024-02-04T09:02:51;6.30;99.90
11772;DHT22;12556;55.748;13.194;2024-02-04T09:05:18;6.30;99.90
11772;DHT22;12556;55.748;13.194;2024-02-04T09:07:45;6.30;99.90
11772;DHT22;12556;55.748;13.194;2024-02-04T09:10:12;6.40;99.90
11772;DHT22;12556;55.748;13.194;2024-02-04T09:12:40;6.40;99.90
11772;DHT22;12556;55.748;13.194;2024-02-04T09:15:07;6.50;99.90
11772;DHT22;12556;55.748;13.194;2024-02-04T09:17:36;6.50;99.90
11772;DHT22;12556;55.748;13.194;2024-02-04T09:20:03;6.50;99.90
11772;DHT22;12556;55.748;13.194;2024-02-04T09:22:30;6.60;99.90
11772;DHT22;12556;55.748;13.194;2024-02-04T09:24:56;6.60;99.90
11772;DHT22;12556;55.748;13.194;2024-02-04T09:27:23;6.60;99.90
11772;DHT22;12556;55.748;13.194;2024-02-04T09:29:51;6.60;99.90
11772;DHT22;12556;55.748;13.194;2024-02-04T09:32:18;6.60;99.90
11772;DHT22;12556;55.748;13.194;2024-02-04T09:34:46;6.60;99.90
11772;DHT22;12556;55.748;13.194;2024-02-04T09:37:13;6.60;99.90
11772;DHT22;12556;55.748;13.194;2024-02-04T09:39:40;6.60;99.90
11772;DHT22;12556;55.748;13.194;2024-02-04T09:42:07;6.70;99.90
11772;DHT22;12556;55.748;13.194;2024-02-04T09:44:34;6.70;99.90
11772;DHT22;12556;55.748;13.194;2024-02-04T09:47:04;6.70;99.90
11772;DHT22;12556;55.748;13.194;2024-02-04T09:49:32;6.70;99.90
11772;DHT22;12556;55.748;13.194;2024-02-04T09:52:03;6.70;99.90
11772;DHT22;12556;55.748;13.194;2024-02-04T09:54:34;6.80;99.90
11772;DHT22;12556;55.748;13.194;2024-02-04T09:57:04;6.80;99.90
11772;DHT22;12556;55.748;13.194;2024-02-04T09:59:31;6.90;99.90
11772;DHT22;12556;55.748;13.194;2024-02-04T10:01:58;6.90;99.90
11772;DHT22;12556;55.748;13.194;2024-02-04T10:04:25;6.90;99.90
11772;DHT22;12556;55.748;13.194;2024-02-04T10:06:52;6.90;99.90
11772;DHT22;12556;55.748;13.194;2024-02-04T10:09:20;6.90;99.90
11772;DHT22;12556;55.748;13.194;2024-02-04T10:11:47;7.00;99.90
11772;DHT22;12556;55.748;13.194;2024-02-04T10:14:15;7.00;99.90
11772;DHT22;12556;55.748;13.194;2024-02-04T10:16:44;7.00;99.90
11772;DHT22;12556;55.748;13.194;2024-02-04T10:19:11;7.10;99.90
11772;DHT22;12556;55.748;13.194;2024-02-04T10:21:38;7.10;99.90
11772;DHT22;12556;55.748;13.194;2024-02-04T10:24:06;7.10;99.90
11772;DHT22;12556;55.748;13.194;2024-02-04T10:26:34;7.10;99.90
11772;DHT22;12556;55.748;13.194;2024-02-04T10:29:03;7.10;99.90
11772;DHT22;12556;55.748;13.194;2024-02-04T10:31:30;7.10;99.90
11772;DHT22;12556;55.748;13.194;2024-02-04T10:33:57;7.10;99.90
11772;DHT22;12556;55.748;13.194;2024-02-04T10:36:23;7.20;99.90
11772;DHT22;12556;55.748;13.194;2024-02-04T10:38:50;7.20;99.90
11772;DHT22;12556;55.748;13.194;2024-02-04T10:41:18;7.20;99.90
11772;DHT22;12556;55.748;13.194;2024-02-04T10:43:46;7.20;99.90
11772;DHT22;12556;55.748;13.194;2024-02-04T10:46:16;7.20;99.90
11772;DHT22;12556;55.748;13.194;2024-02-04T10:48:48;7.20;99.90
11772;DHT22;12556;55.748;13.194;2024-02-04T10:51:18;7.20;99.90
11772;DHT22;12556;55.748;13.194;2024-02-04T10:53:49;7.30;99.90
11772;DHT22;12556;55.748;13.194;2024-02-04T10:56:21;7.30;99.90
11772;DHT22;12556;55.748;13.194;2024-02-04T10:58:52;7.30;99.90
11772;DHT22;12556;55.748;13.194;2024-02-04T11:01:19;7.30;99.90
11772;DHT22;12556;55.748;13.194;2024-02-04T11:03:46;7.30;99.90
11772;DHT22;12556;55.748;13.194;2024-02-04T11:06:13;7.30;99.90
11772;DHT22;12556;55.748;13.194;2024-02-04T11:08:41;7.30;99.90
11772;DHT22;12556;55.748;13.194;2024-02-04T11:11:07;7.30;99.90
11772;DHT22;12556;55.748;13.194;2024-02-04T11:13:35;7.30;99.90
11772;DHT22;12556;55.748;13.194;2024-02-04T11:16:09;7.30;99.90
11772;DHT22;12556;55.748;13.194;2024-02-04T11:18:58;7.30;99.90
11772;DHT22;12556;55.748;13.194;2024-02-04T11:21:49;7.30;99.90
11772;DHT22;12556;55.748;13.194;2024-02-04T11:24:32;7.30;99.90
11772;DHT22;12556;55.748;13.194;2024-02-04T11:27:05;7.30;99.90
11772;DHT22;12556;55.748;13.194;2024-02-04T11:29:32;7.30;99.90
11772;DHT22;12556;55.748;13.194;2024-02-04T11:32:02;7.30;99.90
11772;DHT22;12556;55.748;13.194;2024-02-04T11:34:30;7.40;99.90
11772;DHT22;12556;55.748;13.194;2024-02-04T11:36:56;7.40;99.90
11772;DHT22;12556;55.748;13.194;2024-02-04T11:39:24;7.40;99.90
11772;DHT22;12556;55.748;13.194;2024-02-04T11:41:51;7.40;99.90
11772;DHT22;12556;55.748;13.194;2024-02-04T11:44:21;7.40;99.90
11772;DHT22;12556;55.748;13.194;2024-02-04T11:46:48;7.50;99.90
11772;DHT22;12556;55.748;13.194;2024-02-04T11:49:17;7.50;99.90
11772;DHT22;12556;55.748;13.194;2024-02-04T11:51:46;7.50;99.90
11772;DHT22;12556;55.748;13.194;2024-02-04T11:54:15;7.60;99.90
11772;DHT22;12556;55.748;13.194;2024-02-04T11:56:42;7.60;99.90
11772;DHT22;12556;55.748;13.194;2024-02-04T11:59:10;7.60;99.90
11772;DHT22;12556;55.748;13.194;2024-02-04T12:01:38;7.60;99.90
11772;DHT22;12556;55.748;13.194;2024-02-04T12:04:12;7.60;99.90
11772;DHT22;12556;55.748;13.194;2024-02-04T12:06:42;7.60;99.90
11772;DHT22;12556;55.748;13.194;2024-02-04T12:09:09;7.60;99.90
11772;DHT22;12556;55.748;13.194;2024-02-04T12:11:36;7.70;99.90
11772;DHT22;12556;55.748;13.194;2024-02-04T12:14:04;7.60;99.90
11772;DHT22;12556;55.748;13.194;2024-02-04T12:16:32;7.60;99.90
11772;DHT22;12556;55.748;13.194;2024-02-04T12:19:00;7.60;99.90
11772;DHT22;12556;55.748;13.194;2024-02-04T12:21:29;7.60;99.90
11772;DHT22;12556;55.748;13.194;2024-02-04T12:23:57;7.60;99.90
11772;DHT22;12556;55.748;13.194;2024-02-04T12:26:24;7.60;99.90
11772;DHT22;12556;55.748;13.194;2024-02-04T12:28:51;7.60;99.90
11772;DHT22;12556;55.748;13.194;2024-02-04T12:31:18;7.60;99.90
11772;DHT22;12556;55.748;13.194;2024-02-04T12:33:52;7.60;99.90
11772;DHT22;12556;55.748;13.194;2024-02-04T12:36:20;7.60;99.90
11772;DHT22;12556;55.748;13.194;2024-02-04T12:38:52;7.60;99.90
11772;DHT22;12556;55.748;13.194;2024-02-04T12:41:20;7.60;99.90
11772;DHT22;12556;55.748;13.194;2024-02-04T12:43:50;7.60;99.90
11772;DHT22;12556;55.748;13.194;2024-02-04T12:46:18;7.60;99.90
11772;DHT22;12556;55.748;13.194;2024-02-04T12:48:45;7.60;99.90
11772;DHT22;12556;55.748;13.194;2024-02-04T12:51:12;7.60;99.90
11772;DHT22;12556;55.748;13.194;2024-02-04T12:53:49;7.60;99.90
11772;DHT22;12556;55.748;13.194;2024-02-04T12:56:16;7.60;99.90
11772;DHT22;12556;55.748;13.194;2024-02-04T12:58:44;7.60;99.90
11772;DHT22;12556;55.748;13.194;2024-02-04T13:01:11;7.70;99.90
11772;DHT22;12556;55.748;13.194;2024-02-04T13:03:39;7.60;99.90
11772;DHT22;12556;55.748;13.194;2024-02-04T13:06:06;7.60;99.90
11772;DHT22;12556;55.748;13.194;2024-02-04T13:08:33;7.60;99.90
11772;DHT22;12556;55.748;13.194;2024-02-04T13:11:00;8.30;99.90
11772;DHT22;12556;55.748;13.194;2024-02-04T13:13:28;7.60;99.90
11772;DHT22;12556;55.748;13.194;2024-02-04T13:15:56;7.60;99.90
11772;DHT22;12556;55.748;13.194;2024-02-04T13:18:23;7.60;99.90
11772;DHT22;12556;55.748;13.194;2024-02-04T13:20:50;7.60;99.90
11772;DHT22;12556;55.748;13.194;2024-02-04T13:23:17;7.60;99.90
11772;DHT22;12556;55.748;13.194;2024-02-04T13:25:44;7.60;99.90
11772;DHT22;12556;55.748;13.194;2024-02-04T13:28:12;7.60;99.90
11772;DHT22;12556;55.748;13.194;2024-02-04T13:30:39;7.50;99.90
11772;DHT22;12556;55.748;13.194;2024-02-04T13:33:07;7.50;99.90
11772;DHT22;12556;55.748;13.194;2024-02-04T13:35:35;7.50;99.90
11772;DHT22;12556;55.748;13.194;2024-02-04T13:38:02;7.60;99.90
11772;DHT22;12556;55.748;13.194;2024-02-04T13:40:28;7.60;99.90
11772;DHT22;12556;55.748;13.194;2024-02-04T13:42:55;7.60;99.90
11772;DHT22;12556;55.748;13.194;2024-02-04T13:45:21;7.60;99.90
11772;DHT22;12556;55.748;13.194;2024-02-04T13:47:48;7.60;99.90
11772;DHT22;12556;55.748;13.194;2024-02-04T13:50:17;7.60;99.90
11772;DHT22;12556;55.748;13.194;2024-02-04T13:52:43;7.60;99.90
11772;DHT22;12556;55.748;13.194;2024-02-04T13:55:10;7.60;99.90
11772;DHT22;12556;55.748;13.194;2024-02-04T13:57:37;7.60;99.90
11772;DHT22;12556;55.748;13.194;2024-02-04T14:00:05;7.60;99.90
11772;DHT22;12556;55.748;13.194;2024-02-04T14:02:33;7.60;99.90
11772;DHT22;12556;55.748;13.194;2024-02-04T14:05:00;7.50;99.90
11772;DHT22;12556;55.748;13.194;2024-02-04T14:07:28;7.50;99.90
11772;DHT22;12556;55.748;13.194;2024-02-04T14:09:55;7.50;99.90
11772;DHT22;12556;55.748;13.194;2024-02-04T14:12:22;7.40;99.90
11772;DHT22;12556;55.748;13.194;2024-02-04T14:14:49;7.40;99.90
11772;DHT22;12556;55.748;13.194;2024-02-04T14:17:15;7.30;99.90
11772;DHT22;12556;55.748;13.194;2024-02-04T14:19:42;7.30;99.90
11772;DHT22;12556;55.748;13.194;2024-02-04T14:22:11;7.30;99.90
11772;DHT22;12556;55.748;13.194;2024-02-04T14:24:40;7.30;99.90
11772;DHT22;12556;55.748;13.194;2024-02-04T14:27:06;7.30;99.90
11772;DHT22;12556;55.748;13.194;2024-02-04T14:29:34;7.30;99.90
11772;DHT22;12556;55.748;13.194;2024-02-04T14:32:01;7.30;99.90
11772;DHT22;12556;55.748;13.194;2024-02-04T14:34:28;7.30;99.90
11772;DHT22;12556;55.748;13.194;2024-02-04T14:36:55;7.30;99.90
11772;DHT22;12556;55.748;13.194;2024-02-04T14:39:22;7.30;99.90
11772;DHT22;12556;55.748;13.194;2024-02-04T14:41:50;7.30;99.90
11772;DHT22;12556;55.748;13.194;2024-02-04T14:44:19;7.30;99.90
11772;DHT22;12556;55.748;13.194;2024-02-04T14:46:46;7.20;99.90
11772;DHT22;12556;55.748;13.194;2024-02-04T14:49:13;7.20;99.90
11772;DHT22;12556;55.748;13.194;2024-02-04T14:51:40;7.10;99.90
11772;DHT22;12556;55.748;13.194;2024-02-04T14:54:09;7.10;99.90
11772;DHT22;12556;55.748;13.194;2024-02-04T14:56:39;7.10;99.90
11772;DHT22;12556;55.748;13.194;2024-02-04T14:59:09;7.10;99.90
11772;DHT22;12556;55.748;13.194;2024-02-04T15:01:36;7.00;99.90
11772;DHT22;12556;55.748;13.194;2024-02-04T15:04:04;7.00;99.90
11772;DHT22;12556;55.748;13.194;2024-02-04T15:06:30;6.90;99.90
11772;DHT22;12556;55.748;13.194;2024-02-04T15:08:58;7.00;99.90
11772;DHT22;12556;55.748;13.194;2024-02-04T15:11:26;7.00;99.90
11772;DHT22;12556;55.748;13.194;2024-02-04T15:13:55;7.00;99.90
11772;DHT22;12556;55.748;13.194;2024-02-04T15:16:24;7.00;99.90
11772;DHT22;12556;55.748;13.194;2024-02-04T15:18:51;7.00;99.90
11772;DHT22;12556;55.748;13.194;2024-02-04T15:21:18;6.90;99.90
11772;DHT22;12556;55.748;13.194;2024-02-04T15:23:46;6.90;99.90
11772;DHT22;12556;55.748;13.194;2024-02-04T15:26:14;6.90;99.90
11772;DHT22;12556;55.748;13.194;2024-02-04T15:28:42;6.90;99.90
11772;DHT22;12556;55.748;13.194;2024-02-04T15:31:10;6.90;99.90
11772;DHT22;12556;55.748;13.194;2024-02-04T15:33:39;6.90;99.90